CPX14 Details

Departure: Ted Stevens Anchorage International Airport (PANC)
Arrival: Incheon International Airport (RKSI) at N/A
Route: NODLE R220 NOSHO R220 NANZA R220 NODAN R217 GTC Y142 SAMON Y14 DRIPS Y16 SAPRA G585 SEL
Notes:


Current Weather Information
PANC 231253Z 23003KT 10SM BKN065 BKN075 03/00 A2936 RMK AO2 RAE50 SLP943 P0000 T00330000
RKSI 231330Z 04004KT CAVOK 17/10 Q1019 NOSIG